sensor_id;sensor_type;location;lat;lon;timestamp;P1;durP1;ratioP1;P2;durP2;ratioP2
69502;SDS011;56704;54.242;12.442;2023-04-01T00:01:52;6.00;;;2.30;;
69502;SDS011;56704;54.242;12.442;2023-04-01T00:04:19;8.00;;;3.00;;
69502;SDS011;56704;54.242;12.442;2023-04-01T00:06:46;8.13;;;2.30;;
69502;SDS011;56704;54.242;12.442;2023-04-01T00:09:13;7.13;;;2.30;;
69502;SDS011;56704;54.242;12.442;2023-04-01T00:11:40;6.70;;;2.55;;
69502;SDS011;56704;54.242;12.442;2023-04-01T00:14:07;6.35;;;2.05;;
69502;SDS011;56704;54.242;12.442;2023-04-01T00:16:35;5.72;;;1.98;;
69502;SDS011;56704;54.242;12.442;2023-04-01T00:19:02;8.30;;;1.80;;
69502;SDS011;56704;54.242;12.442;2023-04-01T00:21:29;7.63;;;1.85;;
69502;SDS011;56704;54.242;12.442;2023-04-01T00:23:56;7.18;;;1.80;;
69502;SDS011;56704;54.242;12.442;2023-04-01T00:26:24;6.88;;;2.72;;
69502;SDS011;56704;54.242;12.442;2023-04-01T00:28:51;7.47;;;2.60;;
69502;SDS011;56704;54.242;12.442;2023-04-01T00:31:18;5.80;;;1.80;;
69502;SDS011;56704;54.242;12.442;2023-04-01T00:33:46;6.30;;;2.50;;
69502;SDS011;56704;54.242;12.442;2023-04-01T00:36:14;4.38;;;1.30;;
69502;SDS011;56704;54.242;12.442;2023-04-01T00:38:42;6.28;;;2.20;;
69502;SDS011;56704;54.242;12.442;2023-04-01T00:41:10;8.60;;;2.47;;
69502;SDS011;56704;54.242;12.442;2023-04-01T00:43:39;5.63;;;2.00;;
69502;SDS011;56704;54.242;12.442;2023-04-01T00:46:06;5.18;;;1.52;;
69502;SDS011;56704;54.242;12.442;2023-04-01T00:48:33;6.45;;;1.40;;
69502;SDS011;56704;54.242;12.442;2023-04-01T00:51:04;6.22;;;1.80;;
69502;SDS011;56704;54.242;12.442;2023-04-01T00:53:34;6.72;;;2.30;;
69502;SDS011;56704;54.242;12.442;2023-04-01T00:56:05;6.30;;;2.10;;
69502;SDS011;56704;54.242;12.442;2023-04-01T00:58:37;8.02;;;2.47;;
69502;SDS011;56704;54.242;12.442;2023-04-01T01:01:07;9.88;;;2.70;;
69502;SDS011;56704;54.242;12.442;2023-04-01T01:03:35;7.45;;;2.65;;
69502;SDS011;56704;54.242;12.442;2023-04-01T01:06:10;7.80;;;2.22;;
69502;SDS011;56704;54.242;12.442;2023-04-01T01:08:58;6.03;;;1.90;;
69502;SDS011;56704;54.242;12.442;2023-04-01T01:11:35;10.18;;;3.25;;
69502;SDS011;56704;54.242;12.442;2023-04-01T01:14:08;9.05;;;2.75;;
69502;SDS011;56704;54.242;12.442;2023-04-01T01:16:41;6.95;;;2.47;;
69502;SDS011;56704;54.242;12.442;2023-04-01T01:19:14;9.27;;;3.60;;
69502;SDS011;56704;54.242;12.442;2023-04-01T01:21:59;9.90;;;3.13;;
69502;SDS011;56704;54.242;12.442;2023-04-01T01:24:43;9.05;;;2.95;;
69502;SDS011;56704;54.242;12.442;2023-04-01T01:27:22;8.80;;;2.97;;
69502;SDS011;56704;54.242;12.442;2023-04-01T01:30:01;8.40;;;2.40;;
69502;SDS011;56704;54.242;12.442;2023-04-01T01:32:55;7.88;;;2.30;;
69502;SDS011;56704;54.242;12.442;2023-04-01T01:35:35;8.10;;;2.87;;
69502;SDS011;56704;54.242;12.442;2023-04-01T01:38:05;8.68;;;2.58;;
69502;SDS011;56704;54.242;12.442;2023-04-01T01:40:35;11.48;;;2.97;;
69502;SDS011;56704;54.242;12.442;2023-04-01T01:43:05;10.88;;;3.00;;
69502;SDS011;56704;54.242;12.442;2023-04-01T01:45:35;8.02;;;3.17;;
69502;SDS011;56704;54.242;12.442;2023-04-01T01:48:05;10.57;;;3.23;;
69502;SDS011;56704;54.242;12.442;2023-04-01T01:50:35;6.45;;;2.20;;
69502;SDS011;56704;54.242;12.442;2023-04-01T01:53:07;6.85;;;2.28;;
69502;SDS011;56704;54.242;12.442;2023-04-01T01:55:35;6.55;;;1.98;;
69502;SDS011;56704;54.242;12.442;2023-04-01T01:58:04;6.78;;;2.28;;
69502;SDS011;56704;54.242;12.442;2023-04-01T02:00:35;7.73;;;2.67;;
69502;SDS011;56704;54.242;12.442;2023-04-01T02:03:02;8.60;;;2.63;;
69502;SDS011;56704;54.242;12.442;2023-04-01T02:05:30;8.88;;;2.47;;
69502;SDS011;56704;54.242;12.442;2023-04-01T02:08:01;7.43;;;2.80;;
69502;SDS011;56704;54.242;12.442;2023-04-01T02:10:31;10.18;;;2.83;;
69502;SDS011;56704;54.242;12.442;2023-04-01T02:13:05;10.30;;;2.83;;
69502;SDS011;56704;54.242;12.442;2023-04-01T02:15:38;6.40;;;2.00;;
69502;SDS011;56704;54.242;12.442;2023-04-01T02:18:08;7.90;;;1.92;;
69502;SDS011;56704;54.242;12.442;2023-04-01T02:20:36;7.72;;;2.75;;
69502;SDS011;56704;54.242;12.442;2023-04-01T02:23:06;5.88;;;2.30;;
69502;SDS011;56704;54.242;12.442;2023-04-01T02:25:35;8.20;;;2.50;;
69502;SDS011;56704;54.242;12.442;2023-04-01T02:28:04;7.35;;;1.90;;
69502;SDS011;56704;54.242;12.442;2023-04-01T02:30:33;10.73;;;2.50;;
69502;SDS011;56704;54.242;12.442;2023-04-01T02:33:02;9.35;;;2.90;;
69502;SDS011;56704;54.242;12.442;2023-04-01T02:35:32;6.03;;;2.30;;
69502;SDS011;56704;54.242;12.442;2023-04-01T02:38:00;8.83;;;2.67;;
69502;SDS011;56704;54.242;12.442;2023-04-01T02:40:29;9.82;;;2.80;;
69502;SDS011;56704;54.242;12.442;2023-04-01T02:42:56;6.90;;;2.33;;
69502;SDS011;56704;54.242;12.442;2023-04-01T02:45:22;5.88;;;2.08;;
69502;SDS011;56704;54.242;12.442;2023-04-01T02:47:49;8.20;;;2.58;;
69502;SDS011;56704;54.242;12.442;2023-04-01T02:50:15;6.73;;;2.27;;
69502;SDS011;56704;54.242;12.442;2023-04-01T02:52:42;6.22;;;2.17;;
69502;SDS011;56704;54.242;12.442;2023-04-01T02:55:09;8.38;;;2.00;;
69502;SDS011;56704;54.242;12.442;2023-04-01T02:57:37;6.18;;;1.50;;
69502;SDS011;56704;54.242;12.442;2023-04-01T03:00:04;8.20;;;2.13;;
69502;SDS011;56704;54.242;12.442;2023-04-01T03:02:36;5.10;;;2.10;;
69502;SDS011;56704;54.242;12.442;2023-04-01T03:05:03;8.80;;;3.25;;
69502;SDS011;56704;54.242;12.442;2023-04-01T03:07:30;7.13;;;2.50;;
69502;SDS011;56704;54.242;12.442;2023-04-01T03:09:57;4.70;;;1.58;;
69502;SDS011;56704;54.242;12.442;2023-04-01T03:12:24;6.15;;;2.17;;
69502;SDS011;56704;54.242;12.442;2023-04-01T03:14:51;8.07;;;2.53;;
69502;SDS011;56704;54.242;12.442;2023-04-01T03:17:18;8.80;;;2.55;;
69502;SDS011;56704;54.242;12.442;2023-04-01T03:19:45;9.13;;;2.78;;
69502;SDS011;56704;54.242;12.442;2023-04-01T03:22:11;7.28;;;2.65;;
69502;SDS011;56704;54.242;12.442;2023-04-01T03:24:38;7.95;;;2.88;;
69502;SDS011;56704;54.242;12.442;2023-04-01T03:27:04;8.43;;;2.30;;
69502;SDS011;56704;54.242;12.442;2023-04-01T03:29:31;9.05;;;2.47;;
69502;SDS011;56704;54.242;12.442;2023-04-01T03:31:59;10.20;;;2.67;;
69502;SDS011;56704;54.242;12.442;2023-04-01T03:34:25;8.85;;;2.75;;
69502;SDS011;56704;54.242;12.442;2023-04-01T03:36:52;9.32;;;2.35;;
69502;SDS011;56704;54.242;12.442;2023-04-01T03:39:19;10.70;;;2.50;;
69502;SDS011;56704;54.242;12.442;2023-04-01T03:41:45;9.40;;;2.78;;
69502;SDS011;56704;54.242;12.442;2023-04-01T03:44:12;8.98;;;3.25;;
69502;SDS011;56704;54.242;12.442;2023-04-01T03:46:39;8.98;;;2.50;;
69502;SDS011;56704;54.242;12.442;2023-04-01T03:49:07;8.38;;;2.25;;
69502;SDS011;56704;54.242;12.442;2023-04-01T03:51:36;7.63;;;2.63;;
69502;SDS011;56704;54.242;12.442;2023-04-01T03:54:03;8.63;;;3.05;;
69502;SDS011;56704;54.242;12.442;2023-04-01T03:56:30;7.97;;;2.67;;
69502;SDS011;56704;54.242;12.442;2023-04-01T03:58:56;4.63;;;1.75;;
69502;SDS011;56704;54.242;12.442;2023-04-01T04:01:23;5.80;;;2.08;;
69502;SDS011;56704;54.242;12.442;2023-04-01T04:03:50;5.37;;;2.13;;
69502;SDS011;56704;54.242;12.442;2023-04-01T04:06:18;9.30;;;2.78;;
69502;SDS011;56704;54.242;12.442;2023-04-01T04:08:46;8.00;;;2.28;;
69502;SDS011;56704;54.242;12.442;2023-04-01T04:11:12;7.65;;;2.75;;
69502;SDS011;56704;54.242;12.442;2023-04-01T04:13:39;6.13;;;2.00;;
69502;SDS011;56704;54.242;12.442;2023-04-01T04:16:06;8.40;;;2.57;;
69502;SDS011;56704;54.242;12.442;2023-04-01T04:18:33;6.57;;;2.22;;
69502;SDS011;56704;54.242;12.442;2023-04-01T04:21:00;6.32;;;2.08;;
69502;SDS011;56704;54.242;12.442;2023-04-01T04:23:28;6.35;;;2.30;;
69502;SDS011;56704;54.242;12.442;2023-04-01T04:26:00;5.68;;;1.25;;
69502;SDS011;56704;54.242;12.442;2023-04-01T04:28:28;5.83;;;2.23;;
69502;SDS011;56704;54.242;12.442;2023-04-01T04:30:55;7.88;;;2.38;;
69502;SDS011;56704;54.242;12.442;2023-04-01T04:33:22;5.93;;;2.20;;
69502;SDS011;56704;54.242;12.442;2023-04-01T04:35:49;10.32;;;2.50;;
69502;SDS011;56704;54.242;12.442;2023-04-01T04:38:15;6.80;;;2.17;;
69502;SDS011;56704;54.242;12.442;2023-04-01T04:40:44;11.47;;;2.27;;
69502;SDS011;56704;54.242;12.442;2023-04-01T04:43:11;10.25;;;2.83;;
69502;SDS011;56704;54.242;12.442;2023-04-01T04:45:39;7.60;;;2.20;;
69502;SDS011;56704;54.242;12.442;2023-04-01T04:48:06;7.25;;;2.38;;
69502;SDS011;56704;54.242;12.442;2023-04-01T04:50:34;7.63;;;2.15;;
69502;SDS011;56704;54.242;12.442;2023-04-01T04:53:01;11.60;;;2.77;;
69502;SDS011;56704;54.242;12.442;2023-04-01T04:55:27;8.65;;;3.15;;
69502;SDS011;56704;54.242;12.442;2023-04-01T04:57:55;6.07;;;2.33;;
69502;SDS011;56704;54.242;12.442;2023-04-01T05:00:22;10.73;;;3.40;;
69502;SDS011;56704;54.242;12.442;2023-04-01T05:02:49;7.47;;;3.25;;
69502;SDS011;56704;54.242;12.442;2023-04-01T05:05:15;11.07;;;3.20;;
69502;SDS011;56704;54.242;12.442;2023-04-01T05:07:42;9.13;;;3.30;;
69502;SDS011;56704;54.242;12.442;2023-04-01T05:10:09;7.35;;;2.35;;
69502;SDS011;56704;54.242;12.442;2023-04-01T05:12:35;8.50;;;2.55;;
69502;SDS011;56704;54.242;12.442;2023-04-01T05:15:05;7.30;;;2.55;;
69502;SDS011;56704;54.242;12.442;2023-04-01T05:17:33;9.43;;;2.50;;
69502;SDS011;56704;54.242;12.442;2023-04-01T05:20:00;8.45;;;2.53;;
69502;SDS011;56704;54.242;12.442;2023-04-01T05:22:27;8.18;;;2.85;;
69502;SDS011;56704;54.242;12.442;2023-04-01T05:24:54;8.80;;;3.10;;
69502;SDS011;56704;54.242;12.442;2023-04-01T05:27:20;9.82;;;3.00;;
69502;SDS011;56704;54.242;12.442;2023-04-01T05:29:47;7.47;;;2.57;;
69502;SDS011;56704;54.242;12.442;2023-04-01T05:32:15;9.80;;;2.85;;
69502;SDS011;56704;54.242;12.442;2023-04-01T05:34:42;7.13;;;2.42;;
69502;SDS011;56704;54.242;12.442;2023-04-01T05:37:09;7.45;;;2.58;;
69502;SDS011;56704;54.242;12.442;2023-04-01T05:39:36;6.57;;;2.33;;
69502;SDS011;56704;54.242;12.442;2023-04-01T05:42:05;7.93;;;2.57;;
69502;SDS011;56704;54.242;12.442;2023-04-01T05:44:32;7.47;;;2.20;;
69502;SDS011;56704;54.242;12.442;2023-04-01T05:46:59;7.63;;;2.72;;
69502;SDS011;56704;54.242;12.442;2023-04-01T05:49:27;7.78;;;2.80;;
69502;SDS011;56704;54.242;12.442;2023-04-01T05:51:53;4.95;;;1.83;;
69502;SDS011;56704;54.242;12.442;2023-04-01T05:54:20;10.13;;;2.60;;
69502;SDS011;56704;54.242;12.442;2023-04-01T05:56:47;11.35;;;2.60;;
69502;SDS011;56704;54.242;12.442;2023-04-01T05:59:13;6.10;;;2.03;;
69502;SDS011;56704;54.242;12.442;2023-04-01T06:01:40;10.07;;;2.95;;
69502;SDS011;56704;54.242;12.442;2023-04-01T06:04:09;7.53;;;2.63;;
69502;SDS011;56704;54.242;12.442;2023-04-01T06:06:40;6.33;;;2.43;;
69502;SDS011;56704;54.242;12.442;2023-04-01T06:09:12;9.30;;;3.00;;
69502;SDS011;56704;54.242;12.442;2023-04-01T06:11:44;6.70;;;2.55;;
69502;SDS011;56704;54.242;12.442;2023-04-01T06:14:22;10.13;;;2.75;;
69502;SDS011;56704;54.242;12.442;2023-04-01T06:17:01;8.27;;;3.42;;
69502;SDS011;56704;54.242;12.442;2023-04-01T06:19:36;9.53;;;3.57;;
69502;SDS011;56704;54.242;12.442;2023-04-01T06:22:24;9.48;;;3.90;;
69502;SDS011;56704;54.242;12.442;2023-04-01T06:25:47;10.10;;;4.03;;
69502;SDS011;56704;54.242;12.442;2023-04-01T06:31:20;13.25;;;4.78;;
69502;SDS011;56704;54.242;12.442;2023-04-01T06:34:04;13.33;;;4.63;;
69502;SDS011;56704;54.242;12.442;2023-04-01T06:36:49;10.27;;;4.38;;
69502;SDS011;56704;54.242;12.442;2023-04-01T06:39:37;8.68;;;3.78;;
69502;SDS011;56704;54.242;12.442;2023-04-01T06:42:22;8.88;;;2.97;;
69502;SDS011;56704;54.242;12.442;2023-04-01T06:45:14;5.75;;;2.08;;
69502;SDS011;56704;54.242;12.442;2023-04-01T06:47:54;11.57;;;3.97;;
69502;SDS011;56704;54.242;12.442;2023-04-01T06:50:30;12.05;;;2.95;;
69502;SDS011;56704;54.242;12.442;2023-04-01T06:53:02;9.07;;;3.25;;
69502;SDS011;56704;54.242;12.442;2023-04-01T06:55:38;6.75;;;2.83;;
69502;SDS011;56704;54.242;12.442;2023-04-01T06:58:11;8.32;;;3.58;;
69502;SDS011;56704;54.242;12.442;2023-04-01T07:00:46;7.83;;;3.30;;
69502;SDS011;56704;54.242;12.442;2023-04-01T07:03:17;7.63;;;3.10;;
69502;SDS011;56704;54.242;12.442;2023-04-01T07:05:47;12.48;;;4.10;;
69502;SDS011;56704;54.242;12.442;2023-04-01T07:08:16;11.30;;;3.28;;
69502;SDS011;56704;54.242;12.442;2023-04-01T07:10:47;14.27;;;4.07;;
69502;SDS011;56704;54.242;12.442;2023-04-01T07:13:20;17.57;;;3.80;;
69502;SDS011;56704;54.242;12.442;2023-04-01T07:15:54;8.63;;;2.90;;
69502;SDS011;56704;54.242;12.442;2023-04-01T07:18:28;12.13;;;3.92;;
69502;SDS011;56704;54.242;12.442;2023-04-01T07:20:58;13.10;;;3.88;;
69502;SDS011;56704;54.242;12.442;2023-04-01T07:23:28;10.95;;;3.35;;
69502;SDS011;56704;54.242;12.442;2023-04-01T07:25:59;13.57;;;4.97;;
69502;SDS011;56704;54.242;12.442;2023-04-01T07:28:31;11.73;;;4.38;;
69502;SDS011;56704;54.242;12.442;2023-04-01T07:31:02;14.05;;;4.50;;
69502;SDS011;56704;54.242;12.442;2023-04-01T07:33:38;11.40;;;4.30;;
69502;SDS011;56704;54.242;12.442;2023-04-01T07:36:08;14.35;;;5.18;;
69502;SDS011;56704;54.242;12.442;2023-04-01T07:38:44;12.07;;;4.60;;
69502;SDS011;56704;54.242;12.442;2023-04-01T07:41:26;10.50;;;4.05;;
69502;SDS011;56704;54.242;12.442;2023-04-01T07:44:01;9.10;;;3.53;;
69502;SDS011;56704;54.242;12.442;2023-04-01T07:46:41;11.65;;;3.80;;
69502;SDS011;56704;54.242;12.442;2023-04-01T07:49:20;14.60;;;4.32;;
69502;SDS011;56704;54.242;12.442;2023-04-01T07:51:54;10.27;;;4.07;;
69502;SDS011;56704;54.242;12.442;2023-04-01T07:54:26;8.43;;;3.10;;
69502;SDS011;56704;54.242;12.442;2023-04-01T07:57:00;13.93;;;3.95;;
69502;SDS011;56704;54.242;12.442;2023-04-01T07:59:33;13.00;;;5.28;;
69502;SDS011;56704;54.242;12.442;2023-04-01T08:02:10;12.07;;;4.15;;
69502;SDS011;56704;54.242;12.442;2023-04-01T08:04:51;10.03;;;2.97;;
69502;SDS011;56704;54.242;12.442;2023-04-01T08:07:25;8.93;;;3.13;;
69502;SDS011;56704;54.242;12.442;2023-04-01T08:09:59;14.75;;;4.40;;
69502;SDS011;56704;54.242;12.442;2023-04-01T08:12:38;7.28;;;3.15;;
69502;SDS011;56704;54.242;12.442;2023-04-01T08:15:15;9.77;;;3.05;;
69502;SDS011;56704;54.242;12.442;2023-04-01T08:17:51;8.53;;;3.20;;
69502;SDS011;56704;54.242;12.442;2023-04-01T08:20:27;8.80;;;3.33;;
69502;SDS011;56704;54.242;12.442;2023-04-01T08:22:58;11.02;;;3.35;;
69502;SDS011;56704;54.242;12.442;2023-04-01T08:25:33;10.75;;;3.83;;
69502;SDS011;56704;54.242;12.442;2023-04-01T08:28:08;9.57;;;3.08;;
69502;SDS011;56704;54.242;12.442;2023-04-01T08:30:39;11.67;;;4.53;;
69502;SDS011;56704;54.242;12.442;2023-04-01T08:33:11;11.68;;;3.60;;
69502;SDS011;56704;54.242;12.442;2023-04-01T08:35:45;11.50;;;4.72;;
69502;SDS011;56704;54.242;12.442;2023-04-01T08:38:17;9.70;;;3.08;;
69502;SDS011;56704;54.242;12.442;2023-04-01T08:40:58;11.90;;;2.85;;
69502;SDS011;56704;54.242;12.442;2023-04-01T08:43:36;14.03;;;4.57;;
69502;SDS011;56704;54.242;12.442;2023-04-01T08:46:16;14.13;;;3.85;;
69502;SDS011;56704;54.242;12.442;2023-04-01T08:48:54;14.02;;;3.47;;
69502;SDS011;56704;54.242;12.442;2023-04-01T08:51:57;10.23;;;3.75;;
69502;SDS011;56704;54.242;12.442;2023-04-01T08:54:56;11.23;;;2.97;;
69502;SDS011;56704;54.242;12.442;2023-04-01T08:57:49;9.17;;;2.83;;
69502;SDS011;56704;54.242;12.442;2023-04-01T09:00:27;9.98;;;3.67;;
69502;SDS011;56704;54.242;12.442;2023-04-01T09:03:02;10.65;;;2.65;;
69502;SDS011;56704;54.242;12.442;2023-04-01T09:05:59;8.68;;;3.10;;
69502;SDS011;56704;54.242;12.442;2023-04-01T09:08:51;10.25;;;3.72;;
69502;SDS011;56704;54.242;12.442;2023-04-01T09:11:35;13.70;;;2.63;;
69502;SDS011;56704;54.242;12.442;2023-04-01T09:17:17;7.93;;;3.00;;
69502;SDS011;56704;54.242;12.442;2023-04-01T09:20:02;6.45;;;2.25;;
69502;SDS011;56704;54.242;12.442;2023-04-01T09:22:50;10.77;;;2.95;;
69502;SDS011;56704;54.242;12.442;2023-04-01T09:28:26;10.13;;;3.03;;
69502;SDS011;56704;54.242;12.442;2023-04-01T09:31:15;11.40;;;2.95;;
69502;SDS011;56704;54.242;12.442;2023-04-01T09:36:59;6.90;;;2.65;;
69502;SDS011;56704;54.242;12.442;2023-04-01T09:39:42;8.00;;;2.57;;
69502;SDS011;56704;54.242;12.442;2023-04-01T09:42:29;10.50;;;3.42;;
69502;SDS011;56704;54.242;12.442;2023-04-01T09:45:09;7.57;;;2.70;;
69502;SDS011;56704;54.242;12.442;2023-04-01T09:47:50;11.98;;;3.03;;
69502;SDS011;56704;54.242;12.442;2023-04-01T09:50:33;8.38;;;2.67;;
69502;SDS011;56704;54.242;12.442;2023-04-01T09:53:12;9.13;;;3.00;;
69502;SDS011;56704;54.242;12.442;2023-04-01T09:55:55;10.23;;;3.63;;
69502;SDS011;56704;54.242;12.442;2023-04-01T10:01:49;7.97;;;2.58;;
69502;SDS011;56704;54.242;12.442;2023-04-01T10:04:47;8.40;;;2.88;;
69502;SDS011;56704;54.242;12.442;2023-04-01T10:14:00;6.63;;;2.20;;
69502;SDS011;56704;54.242;12.442;2023-04-01T10:16:48;11.25;;;2.33;;
69502;SDS011;56704;54.242;12.442;2023-04-01T10:19:55;3.58;;;1.05;;
69502;SDS011;56704;54.242;12.442;2023-04-01T10:29:01;8.65;;;2.50;;
69502;SDS011;56704;54.242;12.442;2023-04-01T10:31:55;8.57;;;2.15;;
69502;SDS011;56704;54.242;12.442;2023-04-01T10:35:01;8.52;;;2.00;;
69502;SDS011;56704;54.242;12.442;2023-04-01T10:38:04;5.40;;;1.30;;
69502;SDS011;56704;54.242;12.442;2023-04-01T10:41:04;6.80;;;2.33;;
69502;SDS011;56704;54.242;12.442;2023-04-01T10:44:01;5.50;;;1.17;;
69502;SDS011;56704;54.242;12.442;2023-04-01T10:50:06;9.68;;;2.88;;
69502;SDS011;56704;54.242;12.442;2023-04-01T10:52:59;6.43;;;1.97;;
69502;SDS011;56704;54.242;12.442;2023-04-01T10:58:41;9.35;;;2.22;;
69502;SDS011;56704;54.242;12.442;2023-04-01T11:01:40;9.63;;;1.52;;
69502;SDS011;56704;54.242;12.442;2023-04-01T11:07:46;9.00;;;2.60;;
69502;SDS011;56704;54.242;12.442;2023-04-01T11:10:47;9.25;;;1.92;;
69502;SDS011;56704;54.242;12.442;2023-04-01T11:19:47;7.35;;;2.20;;
69502;SDS011;56704;54.242;12.442;2023-04-01T11:22:36;9.87;;;2.10;;
69502;SDS011;56704;54.242;12.442;2023-04-01T11:28:21;6.45;;;2.00;;
69502;SDS011;56704;54.242;12.442;2023-04-01T11:31:16;7.35;;;1.63;;
69502;SDS011;56704;54.242;12.442;2023-04-01T11:34:13;5.80;;;1.80;;
69502;SDS011;56704;54.242;12.442;2023-04-01T11:36:52;9.80;;;2.40;;
69502;SDS011;56704;54.242;12.442;2023-04-01T11:39:30;7.20;;;2.03;;
69502;SDS011;56704;54.242;12.442;2023-04-01T11:42:07;8.65;;;2.08;;
69502;SDS011;56704;54.242;12.442;2023-04-01T11:44:43;8.48;;;2.10;;
69502;SDS011;56704;54.242;12.442;2023-04-01T11:47:24;6.22;;;1.95;;
69502;SDS011;56704;54.242;12.442;2023-04-01T11:50:15;6.07;;;1.70;;
69502;SDS011;56704;54.242;12.442;2023-04-01T11:52:55;3.85;;;1.58;;
69502;SDS011;56704;54.242;12.442;2023-04-01T11:55:37;6.55;;;1.88;;
69502;SDS011;56704;54.242;12.442;2023-04-01T11:58:20;8.38;;;1.67;;
69502;SDS011;56704;54.242;12.442;2023-04-01T12:00:58;6.95;;;2.42;;
69502;SDS011;56704;54.242;12.442;2023-04-01T12:03:38;7.43;;;1.80;;
69502;SDS011;56704;54.242;12.442;2023-04-01T12:06:18;5.25;;;1.92;;
69502;SDS011;56704;54.242;12.442;2023-04-01T12:08:50;5.15;;;1.77;;
69502;SDS011;56704;54.242;12.442;2023-04-01T12:11:26;6.43;;;2.38;;
69502;SDS011;56704;54.242;12.442;2023-04-01T12:13:59;7.03;;;2.20;;
69502;SDS011;56704;54.242;12.442;2023-04-01T12:16:41;5.77;;;2.03;;
69502;SDS011;56704;54.242;12.442;2023-04-01T12:19:18;8.73;;;1.90;;
69502;SDS011;56704;54.242;12.442;2023-04-01T12:21:58;7.72;;;2.20;;
69502;SDS011;56704;54.242;12.442;2023-04-01T12:24:47;6.30;;;1.77;;
69502;SDS011;56704;54.242;12.442;2023-04-01T12:27:20;5.90;;;2.55;;
69502;SDS011;56704;54.242;12.442;2023-04-01T12:30:04;10.83;;;2.47;;
69502;SDS011;56704;54.242;12.442;2023-04-01T12:32:45;7.90;;;2.28;;
69502;SDS011;56704;54.242;12.442;2023-04-01T12:35:22;7.47;;;2.17;;
69502;SDS011;56704;54.242;12.442;2023-04-01T12:38:00;5.20;;;1.52;;
69502;SDS011;56704;54.242;12.442;2023-04-01T12:43:48;6.87;;;1.53;;
69502;SDS011;56704;54.242;12.442;2023-04-01T12:46:41;6.00;;;2.15;;
69502;SDS011;56704;54.242;12.442;2023-04-01T12:49:31;7.35;;;1.98;;
69502;SDS011;56704;54.242;12.442;2023-04-01T12:52:13;5.55;;;1.63;;
69502;SDS011;56704;54.242;12.442;2023-04-01T12:54:55;7.35;;;1.77;;
69502;SDS011;56704;54.242;12.442;2023-04-01T13:00:39;4.75;;;1.20;;
69502;SDS011;56704;54.242;12.442;2023-04-01T13:03:17;5.22;;;1.20;;
69502;SDS011;56704;54.242;12.442;2023-04-01T13:06:18;4.35;;;1.20;;
69502;SDS011;56704;54.242;12.442;2023-04-01T13:08:52;6.60;;;1.35;;
69502;SDS011;56704;54.242;12.442;2023-04-01T13:11:31;4.77;;;1.13;;
69502;SDS011;56704;54.242;12.442;2023-04-01T13:16:59;5.03;;;1.75;;
69502;SDS011;56704;54.242;12.442;2023-04-01T13:19:35;4.18;;;1.30;;
69502;SDS011;56704;54.242;12.442;2023-04-01T13:22:07;5.43;;;1.60;;
69502;SDS011;56704;54.242;12.442;2023-04-01T13:24:42;4.93;;;1.10;;
69502;SDS011;56704;54.242;12.442;2023-04-01T13:27:18;3.72;;;1.02;;
69502;SDS011;56704;54.242;12.442;2023-04-01T13:29:55;3.78;;;1.02;;
69502;SDS011;56704;54.242;12.442;2023-04-01T13:32:29;6.88;;;1.15;;
69502;SDS011;56704;54.242;12.442;2023-04-01T13:35:08;4.97;;;1.48;;
69502;SDS011;56704;54.242;12.442;2023-04-01T13:37:46;3.63;;;1.37;;
69502;SDS011;56704;54.242;12.442;2023-04-01T13:40:26;5.05;;;1.55;;
69502;SDS011;56704;54.242;12.442;2023-04-01T13:43:04;6.60;;;1.30;;
69502;SDS011;56704;54.242;12.442;2023-04-01T13:45:38;4.97;;;1.23;;
69502;SDS011;56704;54.242;12.442;2023-04-01T13:48:28;7.95;;;1.48;;
69502;SDS011;56704;54.242;12.442;2023-04-01T13:51:02;5.20;;;2.20;;
69502;SDS011;56704;54.242;12.442;2023-04-01T13:56:56;7.97;;;1.55;;
69502;SDS011;56704;54.242;12.442;2023-04-01T13:59:39;7.93;;;2.25;;
69502;SDS011;56704;54.242;12.442;2023-04-01T14:02:29;4.53;;;0.68;;
69502;SDS011;56704;54.242;12.442;2023-04-01T14:05:24;7.50;;;1.17;;
69502;SDS011;56704;54.242;12.442;2023-04-01T14:08:04;6.63;;;1.58;;
69502;SDS011;56704;54.242;12.442;2023-04-01T14:10:44;7.05;;;1.58;;
69502;SDS011;56704;54.242;12.442;2023-04-01T14:13:23;4.70;;;1.52;;
69502;SDS011;56704;54.242;12.442;2023-04-01T14:16:02;6.38;;;1.10;;
69502;SDS011;56704;54.242;12.442;2023-04-01T14:18:40;4.50;;;1.07;;
69502;SDS011;56704;54.242;12.442;2023-04-01T14:21:21;3.53;;;1.10;;
69502;SDS011;56704;54.242;12.442;2023-04-01T14:23:58;7.75;;;1.40;;
69502;SDS011;56704;54.242;12.442;2023-04-01T14:26:50;5.10;;;1.10;;
69502;SDS011;56704;54.242;12.442;2023-04-01T14:29:29;5.28;;;1.23;;
69502;SDS011;56704;54.242;12.442;2023-04-01T14:32:07;7.30;;;2.37;;
69502;SDS011;56704;54.242;12.442;2023-04-01T14:34:41;4.90;;;1.50;;
69502;SDS011;56704;54.242;12.442;2023-04-01T14:37:30;6.03;;;1.80;;
69502;SDS011;56704;54.242;12.442;2023-04-01T14:40:27;4.60;;;1.20;;
69502;SDS011;56704;54.242;12.442;2023-04-01T14:42:56;3.92;;;1.20;;
69502;SDS011;56704;54.242;12.442;2023-04-01T14:45:39;3.87;;;1.20;;
69502;SDS011;56704;54.242;12.442;2023-04-01T14:48:17;7.07;;;1.42;;
69502;SDS011;56704;54.242;12.442;2023-04-01T14:50:49;4.28;;;1.23;;
69502;SDS011;56704;54.242;12.442;2023-04-01T14:53:24;5.45;;;1.20;;
69502;SDS011;56704;54.242;12.442;2023-04-01T14:55:54;7.53;;;1.50;;
69502;SDS011;56704;54.242;12.442;2023-04-01T14:58:21;4.10;;;1.13;;
69502;SDS011;56704;54.242;12.442;2023-04-01T15:00:59;5.93;;;1.38;;
69502;SDS011;56704;54.242;12.442;2023-04-01T15:03:38;7.22;;;1.65;;
69502;SDS011;56704;54.242;12.442;2023-04-01T15:06:20;3.45;;;1.00;;
69502;SDS011;56704;54.242;12.442;2023-04-01T15:09:13;3.78;;;1.20;;
69502;SDS011;56704;54.242;12.442;2023-04-01T15:11:51;5.00;;;1.37;;
69502;SDS011;56704;54.242;12.442;2023-04-01T15:14:39;4.70;;;1.52;;
69502;SDS011;56704;54.242;12.442;2023-04-01T15:20:42;5.25;;;1.20;;
69502;SDS011;56704;54.242;12.442;2023-04-01T15:23:32;3.50;;;1.00;;
69502;SDS011;56704;54.242;12.442;2023-04-01T15:26:11;3.27;;;1.10;;
69502;SDS011;56704;54.242;12.442;2023-04-01T15:28:56;6.05;;;1.45;;
69502;SDS011;56704;54.242;12.442;2023-04-01T15:31:33;5.28;;;1.00;;
69502;SDS011;56704;54.242;12.442;2023-04-01T15:36:53;6.63;;;1.65;;
69502;SDS011;56704;54.242;12.442;2023-04-01T15:39:28;4.10;;;0.97;;
69502;SDS011;56704;54.242;12.442;2023-04-01T15:42:10;5.85;;;1.52;;
69502;SDS011;56704;54.242;12.442;2023-04-01T15:44:51;5.72;;;1.58;;
69502;SDS011;56704;54.242;12.442;2023-04-01T15:47:32;4.47;;;1.00;;
69502;SDS011;56704;54.242;12.442;2023-04-01T15:50:11;4.00;;;1.05;;
69502;SDS011;56704;54.242;12.442;2023-04-01T15:52:59;4.77;;;1.10;;
69502;SDS011;56704;54.242;12.442;2023-04-01T15:55:37;7.00;;;1.52;;
69502;SDS011;56704;54.242;12.442;2023-04-01T15:58:18;7.32;;;1.60;;
69502;SDS011;56704;54.242;12.442;2023-04-01T16:01:02;6.07;;;1.30;;
69502;SDS011;56704;54.242;12.442;2023-04-01T16:03:37;3.65;;;0.85;;
69502;SDS011;56704;54.242;12.442;2023-04-01T16:06:23;4.90;;;1.27;;
69502;SDS011;56704;54.242;12.442;2023-04-01T16:09:21;4.63;;;1.10;;
69502;SDS011;56704;54.242;12.442;2023-04-01T16:12:07;3.38;;;0.75;;
69502;SDS011;56704;54.242;12.442;2023-04-01T16:14:45;4.75;;;1.08;;
69502;SDS011;56704;54.242;12.442;2023-04-01T16:17:30;4.18;;;0.80;;
69502;SDS011;56704;54.242;12.442;2023-04-01T16:20:14;4.53;;;0.77;;
69502;SDS011;56704;54.242;12.442;2023-04-01T16:22:49;4.57;;;1.13;;
69502;SDS011;56704;54.242;12.442;2023-04-01T16:25:25;4.07;;;1.17;;
69502;SDS011;56704;54.242;12.442;2023-04-01T16:28:03;4.65;;;1.35;;